• Join FlightAware (Why Join?)
  • Login
  • US Flag 
01:09PM EDT


 

Airport Tracker/Info


-or-


 

Live Flight TrackerFlight Track Log ✈ XA-LFA ✈ 24-Jul-2013 ✈ MMAN / NTR - KMIA

Flight Track Log - Related Links

Times and Time Zones

All times are in EDT time to prevent confusion due to time zone crossing. See the XA-LFA flight status page for this flight to view local times or setup timezone preferences in your user account.

Time Position Orientation Groundspeed Altitude Reporting Facility
EDT Latitude Longitude Course Direction KTS MPH feet Rate Location/Type
10:21AM 25.7668 -97.6175 90° East  Level FlightAware Approximate
10:22AM 25.7667 -97.4904 90° East  Level FlightAware Approximate
10:23AM 25.7583 -97.3637 94° East  Level FlightAware Approximate
10:24AM 25.7493 -97.2370 94° East  Level FlightAware Approximate
10:25AM 25.7403 -97.1103 95° East  Level FlightAware Approximate
10:26AM 25.7311 -96.9836 95° East  Level FlightAware Approximate
10:27AM 25.7218 -96.8569 95° East  Level FlightAware Approximate
10:28AM 25.7124 -96.7303 95° East  Level FlightAware Approximate
10:29AM 25.7029 -96.6037 95° East  Level FlightAware Approximate
10:29AM 25.7694 -97.5094 95° East 430 495 41,000  Level Houston Center
10:30AM 25.6933 -96.4771 95° East  Level FlightAware Approximate
10:30AM 25.7619 -97.3783 94° East 427 491 41,000  Level Houston Center
10:31AM 25.6835 -96.3505 95° East  Level FlightAware Approximate
10:31AM 25.7528 -97.2381 94° East 427 491 41,000  Level Houston Center
10:32AM 25.6737 -96.2240 95° East  Level FlightAware Approximate
10:32AM 25.7447 -97.1053 94° East 431 496 41,000  Level Houston Center
10:33AM 25.6637 -96.0975 95° East  Level FlightAware Approximate
10:33AM 25.7369 -96.9942 94° East 426 490 41,000  Level Houston Center
10:34AM 25.6537 -95.9710 95° East  Level FlightAware Approximate
10:34AM 25.7281 -96.8347 94° East 433 498 40,900  Level Houston Center
10:35AM 25.7175 -96.7039 95° East 429 494 40,900  Level Houston Center
10:36AM 25.7083 -96.5725 94° East 427 491 40,900  Level Houston Center
10:37AM 25.7000 -96.4389 94° East 433 498 41,000  Climbing Houston Center
10:38AM 25.6897 -96.3072 95° East 433 498 41,000 -60 Level Houston Center
10:39AM 25.6797 -96.1483 94° East 432 497 40,900  Descending Houston Center
10:40AM 25.6700 -96.0169 95° East 429 494 41,000  Climbing Houston Center
10:41AM 25.6600 -95.8839 95° East 433 498 40,900 -60 Descending Houston Center
10:42AM 25.6511 -95.7519 94° East 432 497 40,900  Level Houston Center
10:43AM 25.6403 -95.6222 95° East 427 491 40,900  Level Houston Center
10:44AM 25.6342 -95.4922 93° East 424 488 41,000  Climbing Houston Center
10:45AM 25.6589 -95.3353 80° East 427 491 40,900  Descending Houston Center
10:46AM 25.6725 -95.2558 79° East 435 501 41,000 60 Climbing Houston Center
10:47AM 25.6900 -95.1325 81° East 434 499 41,000 -60 Level Houston Center
10:48AM 25.7100 -95.0008 80° East 434 499 40,900  Descending Houston Center
10:49AM 25.7333 -94.8414 81° East 436 502 41,000  Climbing Houston Center
10:50AM 25.7522 -94.7086 81° East 438 504 40,900 -60 Descending Houston Center
10:51AM 25.7711 -94.5750 81° East 439 505 40,900  Level Houston Center
10:52AM 25.7911 -94.4414 81° East 439 505 41,000  Climbing Houston Center
10:53AM 25.8136 -94.2817 81° East 439 505 40,900 -60 Descending Houston Center
10:55AM 25.8332 -94.1181 82° East  Level FlightAware Approximate
11:02AM 25.9508 -93.2389 81° East  Level FlightAware Approximate
11:03AM 25.9671 -93.1131 82° East  Level FlightAware Approximate
11:04AM 25.9834 -92.9873 82° East  Level FlightAware Approximate
11:05AM 25.9995 -92.8615 82° East  Level FlightAware Approximate
11:06AM 26.0156 -92.7357 82° East  Level FlightAware Approximate
11:07AM 26.0315 -92.6098 82° East  Level FlightAware Approximate
11:08AM 26.0473 -92.4839 82° East  Level FlightAware Approximate
11:09AM 26.0631 -92.3579 82° East  Level FlightAware Approximate
11:10AM 26.0787 -92.2320 82° East  Level FlightAware Approximate
11:11AM 26.0942 -92.1060 82° East  Level FlightAware Approximate
11:12AM 26.1096 -91.9799 82° East  Level FlightAware Approximate
11:13AM 26.1248 -91.8538 82° East  Level FlightAware Approximate
11:14AM 26.1406 -91.7278 82° East  Level FlightAware Approximate
11:15AM 26.1571 -91.6019 82° East  Level FlightAware Approximate
11:16AM 26.1735 -91.4759 82° East  Level FlightAware Approximate
11:17AM 26.1894 -91.3499 82° East  Level FlightAware Approximate
11:18AM 26.2046 -91.2237 82° East  Level FlightAware Approximate
11:19AM 26.2197 -91.0975 82° East  Level FlightAware Approximate
11:20AM 26.2347 -90.9712 82° East  Level FlightAware Approximate
11:21AM 26.2496 -90.8450 82° East  Level FlightAware Approximate
11:22AM 26.2644 -90.7187 83° East  Level FlightAware Approximate
11:23AM 26.2791 -90.5923 83° East  Level FlightAware Approximate
11:24AM 26.2936 -90.4660 83° East  Level FlightAware Approximate
11:25AM 26.3081 -90.3395 83° East  Level FlightAware Approximate
11:26AM 26.3224 -90.2131 83° East  Level FlightAware Approximate
11:27AM 26.3366 -90.0867 83° East  Level FlightAware Approximate
11:28AM 26.3500 -89.9601 90° East  Level FlightAware Approximate
11:29AM 26.3459 -89.8328 95° East  Level FlightAware Approximate
11:30AM 26.3354 -89.7059 95° East  Level FlightAware Approximate
11:31AM 26.3248 -89.5790 95° East  Level FlightAware Approximate
11:32AM 26.3139 -89.1629 92° East  Level Estimated
11:33AM 26.3018 -88.7469 92° East  Level Estimated
11:34AM 26.2885 -88.3310 92° East  Level Estimated
11:35AM 26.2740 -87.9151 92° East  Level Estimated
11:36AM 26.2584 -87.4994 92° East  Level Estimated
11:37AM 26.2415 -87.0838 92° East  Level Estimated
11:38AM 26.2234 -86.6683 93° East  Level Estimated
11:39AM 26.2042 -86.2530 93° East  Level Estimated
11:40AM 26.1837 -85.8378 93° East  Level Estimated
11:41AM 26.1621 -85.4227 93° East  Level Estimated
11:42AM 26.1393 -85.0078 93° East  Level Estimated
11:43AM 26.1152 -84.5931 94° East  Level Estimated
11:44AM 26.0900 -84.1785 94° East  Level Estimated
11:45AM 26.0636 -83.7641 94° East  Level Estimated
11:46AM 26.0361 -83.3499 94° East  Level Estimated
11:47AM 26.0073 -82.9359 94° East  Level Estimated
11:48AM 25.9774 -82.5222 95° East  Level Estimated
11:49AM 25.9463 -82.1086 95° East  Level Estimated
11:49AM 26.1247 -86.8519 96° East 462 532 40,900  Level Houston Center
11:50AM 25.9140 -81.6953 95° East  Level Estimated
11:50AM 26.1108 -86.6903 95° East 452 520 40,900  Level Houston Center
11:51AM 25.8806 -81.2821 95° East  Level Estimated
11:51AM 26.1000 -86.5558 95° East 446 513 40,900  Level Houston Center
11:52AM 25.8459 -80.8693 95° East  Level Estimated
11:52AM 26.0878 -86.4200 96° East 444 511 41,000  Level Houston Center
11:53AM 25.8101 -80.4566 95° East  Level Estimated
11:53AM 26.0747 -86.2719 96° East 444 511 41,000  Level Houston Center
11:54AM 25.7954 -80.2901 96° East  Level Estimated
11:54AM 26.0611 -86.1353 96° East 445 512 40,900  Level Houston Center
11:55AM 26.0483 -85.9983 96° East 445 512 40,900  Level Houston Center
11:56AM 26.0444 -85.8622 92° East 444 511 40,900  Level Houston Center
11:57AM 26.0411 -85.7256 92° East 444 511 41,000  Climbing Houston Center
11:58AM 26.0367 -85.5608 92° East 446 513 41,000 -60 Level Houston Center
11:59AM 26.0417 -85.4247 88° East 443 510 40,900  Descending Houston Center
12:00PM 26.0467 -85.2886 88° East 442 509 41,000  Climbing Houston Center
12:01PM 26.0519 -85.1528 87° East 442 509 40,900  Descending Houston Center
12:02PM 26.0583 -85.0178 87° East 440 506 41,000  Climbing Houston Center
12:03PM 26.0633 -84.8544 88° East 439 505 40,900 -60 Descending Houston Center
12:04PM 26.0686 -84.7197 87° East 438 504 40,900  Level Houston Center
12:05PM 26.0742 -84.5831 87° East 443 510 40,900  Level Houston Center
12:06PM 26.0786 -84.4475 88° East 442 509 41,000  Climbing Houston Center
12:07PM 26.0842 -84.3122 87° East 440 506 40,900 -60 Descending Houston Center
12:08PM 26.0892 -84.1772 88° East 438 504 40,900  Level Houston Center
12:09PM 26.0947 -84.0153 88° East 438 504 41,000  Climbing Houston Center
12:10PM 26.1000 -83.8711 88° East 429 494 40,900  Descending Miami Center
12:11PM 26.0983 -83.7303 91° East 440 506 41,000  Climbing Miami Center
12:12PM 26.1047 -83.5964 87° East 440 506 40,900 -60 Descending Miami Center
12:13PM 26.1108 -83.4581 87° East 440 506 40,900  Level Miami Center
12:15PM 26.1147 -83.3267 88° East 440 506 41,000  Climbing Miami Center
12:16PM 26.1031 -83.1667 95° East 440 506 41,000  Level Miami Center
12:17PM 26.0900 -83.0272 96° East 445 512 41,000  Level Miami Center
12:18PM 26.0769 -82.8903 96° East 445 512 41,000  Level Miami Center
12:19PM 26.0658 -82.7556 95° East 445 512 41,000  Level Miami Center
12:20PM 26.0525 -82.6164 96° East 445 512 41,000 -720 Level Miami Center
12:21PM 26.0433 -82.4819 94° East 445 512 39,600 -1,800 Descending Miami Center
12:22PM 26.0317 -82.3450 95° East 445 512 37,400 -2,160 Descending Miami Center
12:23PM 26.0183 -82.2036 96° East 451 519 35,300 -2,160 Descending Miami Center
12:24PM 26.0044 -82.0619 96° East 451 519 33,100 -2,280 Descending Miami Center
12:25PM 25.9908 -81.9181 96° East 464 534 30,800 -2,340 Descending Miami Center
12:26PM 25.9750 -81.7675 97° East 475 547 28,500 -2,340 Descending Miami Center
12:27PM 25.9614 -81.6144 96° East 486 559 26,200 -2,400 Descending Miami Center
12:28PM 25.9431 -81.4658 98° East 486 559 23,800 -2,400 Descending Miami Center
12:29PM 25.9289 -81.3175 96° East 486 559 21,500 -2,280 Descending Miami Center
12:30PM 25.9164 -81.1808 96° East 472 543 19,300 -2,100 Descending Miami Center
12:30PM 25.9058 -81.1089 99° East 384 442 18,100 -1,800 Descending Miami Center
12:32PM 25.8917 -80.9492 96° East 386 444 15,700 -1,680 Descending Miami Center
12:33PM 25.8778 -80.8400 98° East 366 421 14,200 -1,500 Descending Miami Center
12:34PM 25.8661 -80.7289 97° East 359 413 12,700 -1,560 Descending Miami Center
12:35PM 25.8583 -80.6317 95° East 338 389 11,100 -1,740 Descending Miami Center
12:36PM 25.8503 -80.5367 95° East 319 367 9,300 -1,560 Descending Miami Center
12:37PM 25.8442 -80.4511 95° East 298 343 8,000 -660 Descending Miami Center
12:38PM 25.8417 -80.3750 92° East 269 310 8,000  Level Miami Center
12:39PM 25.8539 -80.3061 79° East 239 275 8,000 -180 Level Miami Center
12:40PM 25.8681 -80.2350 78° East 228 262 7,700 -960 Descending Miami Center
12:41PM 25.8847 -80.1431 79° East 223 257 5,800 -1,440 Descending Miami Center
12:42PM 25.8800 -80.0736 94° East 218 251 4,300 -1,260 Descending Miami Center
12:43PM 25.8236 -80.0675 174° South 203 234 3,300 -660 Descending Miami Center
12:44PM 25.8078 -80.1225 252° West 189 217 3,000 -720 Descending Miami Center
12:45PM 25.8047 -80.1756 266° West 188 216 2,000 -1,020 Descending Miami Center
12:46PM 25.8056 -80.2239 271° West 151 174 1,100 -780 Descending Miami Center
12:47PM 25.8003 -80.2675 262° West 118 136 300 -660 Descending Miami Center
12:49PM 25.7833 -80.2833 247° West  Level FlightAware Approximate